Time;durP1;ratioP1;P1;durP2;ratioP2;P2;SDS_P1;SDS_P2;PMS_P1;PMS_P2;Temp;Humidity;BMP_temperature;BMP_pressure;BME280_temperature;BME280_humidity;BME280_pressure;Samples;Min_cycle;Max_cycle;Signal;HPM_P1;HPM_P2
2021/12/21 00:00:11;;;;;;;5.73;2.10;;;15.00;59.50;15.60;101858.00;;;;4948066;28;20641;-38
2021/12/21 00:02:38;;;;;;;4.23;2.33;;;15.00;59.60;15.30;101836.00;;;;4947916;28;20204;-39
2021/12/21 00:05:04;;;;;;;2.67;1.93;;;14.90;59.60;15.60;101845.00;;;;4947704;28;20240;-38
2021/12/21 00:07:30;;;;;;;2.27;2.07;;;14.90;59.60;15.60;101845.00;;;;4947437;28;20341;-38
2021/12/21 00:09:56;;;;;;;2.93;1.90;;;14.90;59.60;15.50;101843.00;;;;4948080;28;20197;-38
2021/12/21 00:12:25;;;;;;;4.83;2.20;;;14.80;59.60;15.50;101807.00;;;;4947422;28;20177;-38
2021/12/21 00:15:02;;;;;;;2.30;2.10;;;14.80;59.60;15.50;101850.00;;;;4946802;29;20280;-38
2021/12/21 00:24:57;;;;;;;2.13;1.97;;;14.70;59.80;15.40;101852.00;;;;4947554;28;20208;-40
2021/12/21 00:27:23;;;;;;;2.33;2.13;;;14.60;59.80;15.40;101857.00;;;;4947194;28;20238;-39
2021/12/21 00:29:49;;;;;;;3.20;2.20;;;14.60;59.80;15.30;101846.00;;;;4947437;28;20193;-39
2021/12/21 00:32:14;;;;;;;2.40;2.10;;;14.60;59.80;15.30;101847.00;;;;4947446;28;20656;-39
2021/12/21 00:34:40;;;;;;;2.53;2.27;;;14.60;59.90;15.30;101836.00;;;;4946554;28;20224;-39
2021/12/21 00:37:06;;;;;;;3.70;2.17;;;14.50;59.90;15.30;101836.00;;;;4947027;28;20229;-39
2021/12/21 00:39:32;;;;;;;2.27;2.07;;;14.50;59.90;15.30;101836.00;;;;4947740;28;20177;-40
2021/12/21 00:41:58;;;;;;;3.40;2.10;;;14.50;60.00;15.20;101828.00;;;;4947566;28;20181;-40
2021/12/21 00:44:24;;;;;;;2.40;2.20;;;14.40;60.00;15.20;101822.00;;;;4947115;28;20507;-38
2021/12/21 00:46:50;;;;;;;2.60;2.30;;;14.40;60.10;15.20;101836.00;;;;4947218;28;20701;-39
2021/12/21 00:49:17;;;;;;;2.67;2.20;;;14.40;60.10;15.20;101841.00;;;;4947156;28;20391;-38
2021/12/21 00:51:44;;;;;;;2.40;2.10;;;14.30;60.00;15.20;101839.00;;;;4948980;28;20415;-40
2021/12/21 00:54:10;;;;;;;2.33;2.13;;;14.30;60.10;15.10;101850.00;;;;4950473;28;20194;-39
2021/12/21 00:56:36;;;;;;;2.90;2.17;;;14.30;60.10;15.10;101847.00;;;;4946898;28;20520;-39
2021/12/21 00:59:03;;;;;;;2.87;2.30;;;14.20;60.00;15.10;101842.00;;;;4946976;28;20181;-39
2021/12/21 01:01:29;;;;;;;2.30;2.10;;;14.20;60.00;15.10;101839.00;;;;4947017;28;20240;-39
2021/12/21 01:03:56;;;;;;;2.57;2.37;;;14.20;60.10;15.00;101834.00;;;;4947059;28;20202;-39
2021/12/21 01:06:37;;;;;;;2.20;2.00;;;14.20;60.10;15.00;101827.00;;;;4947225;28;20198;-38
2021/12/21 01:09:12;;;;;;;2.40;2.20;;;14.10;60.00;15.00;101832.00;;;;4946730;28;20202;-38
2021/12/21 01:11:43;;;;;;;2.30;2.10;;;14.10;60.10;14.90;101833.00;;;;4947220;28;20157;-38
2021/12/21 01:14:54;;;;;;;2.50;2.30;;;14.10;60.20;14.90;101746.00;;;;4947149;28;20603;-40
2021/12/21 01:17:27;;;;;;;2.40;2.20;;;14.00;60.10;14.90;101827.00;;;;4946795;29;20192;-38
2021/12/21 01:20:13;;;;;;;2.30;2.10;;;14.00;60.20;14.80;101826.00;;;;4946787;28;20188;-39
2021/12/21 01:23:05;;;;;;;2.50;2.30;;;13.90;60.20;14.80;101831.00;;;;4947313;28;20166;-39
2021/12/21 01:25:42;;;;;;;2.67;2.37;;;13.90;60.10;14.80;101831.00;;;;4946517;28;20220;-39
2021/12/21 01:30:56;;;;;;;2.77;2.30;;;13.90;60.20;14.70;101821.00;;;;4946879;28;20218;-39
2021/12/21 01:36:15;;;;;;;4.00;2.17;;;13.90;60.20;14.60;101826.00;;;;4947389;29;20205;-39
2021/12/21 01:38:52;;;;;;;2.43;2.20;;;13.80;60.10;14.60;101821.00;;;;4946146;29;20173;-39
2021/12/21 01:41:50;;;;;;;2.50;2.30;;;13.80;60.10;14.60;101825.00;;;;4946773;28;20181;-39
2021/12/21 01:49:50;;;;;;;2.07;1.90;;;13.70;60.00;14.50;101821.00;;;;4950499;29;20450;-38
2021/12/21 01:52:20;;;;;;;2.20;2.00;;;13.60;59.90;14.50;101819.00;;;;4950176;28;20362;-39
2021/12/21 01:54:47;;;;;;;2.13;1.93;;;13.70;60.40;14.50;101817.00;;;;4950274;28;20668;-38
2021/12/21 01:57:13;;;;;;;2.37;2.17;;;13.60;60.00;14.50;101822.00;;;;4949269;28;20268;-40
2021/12/21 01:59:40;;;;;;;3.60;2.53;;;13.60;60.10;14.40;101825.00;;;;4951900;28;20833;-39
2021/12/21 02:02:08;;;;;;;2.40;2.20;;;13.60;60.10;14.40;101824.00;;;;4950745;28;20174;-38
2021/12/21 02:04:35;;;;;;;2.27;2.07;;;13.50;60.00;14.40;101824.00;;;;4950169;28;20652;-39
2021/12/21 02:07:01;;;;;;;2.20;2.00;;;13.50;60.00;14.40;101821.00;;;;4949548;28;20184;-39
2021/12/21 02:09:37;;;;;;;2.40;2.20;;;13.50;59.90;14.40;101813.00;;;;4950150;28;20173;-39
2021/12/21 02:12:15;;;;;;;2.30;2.10;;;13.50;60.10;14.30;101814.00;;;;4948440;29;20696;-39
2021/12/21 02:14:43;;;;;;;2.40;2.20;;;13.40;60.00;14.30;101814.00;;;;4950042;28;20276;-38
2021/12/21 02:22:42;;;;;;;2.10;2.00;;;13.40;60.00;14.30;101812.00;;;;4949586;28;20162;-39
2021/12/21 02:28:22;;;;;;;2.40;2.20;;;13.70;59.70;14.40;101814.00;;;;4949698;28;20260;-39
2021/12/21 02:30:52;;;;;;;2.13;1.93;;;13.90;59.40;14.50;101803.00;;;;4949713;28;20185;-39
2021/12/21 02:33:18;;;;;;;2.10;2.00;;;14.20;58.90;14.60;101804.00;;;;4949616;28;20174;-39
2021/12/21 02:35:43;;;;;;;2.30;2.10;;;14.50;58.60;14.80;101803.00;;;;4949038;28;20209;-39
2021/12/21 02:38:10;;;;;;;2.20;2.00;;;14.80;58.30;15.00;101794.00;;;;4948997;28;20173;-39
2021/12/21 02:40:35;;;;;;;2.40;2.20;;;15.10;58.00;15.10;101791.00;;;;4949302;28;20691;-39
2021/12/21 02:43:01;;;;;;;1.90;1.80;;;15.30;57.70;15.20;101676.00;;;;4949356;28;20206;-39
2021/12/21 02:45:27;;;;;;;2.23;2.03;;;15.40;57.50;15.40;101811.00;;;;4948787;28;20271;-39
2021/12/21 02:47:53;;;;;;;2.30;2.10;;;15.50;57.30;15.50;101815.00;;;;4948510;28;20670;-39
2021/12/21 02:50:18;;;;;;;2.10;1.90;;;15.50;57.30;15.60;101797.00;;;;4949423;28;20170;-39
2021/12/21 02:52:46;;;;;;;2.80;2.03;;;15.60;57.40;15.60;101804.00;;;;4949082;28;20213;-38
2021/12/21 02:55:12;;;;;;;2.07;1.97;;;15.50;57.40;15.70;101807.00;;;;4949131;28;20193;-39
2021/12/21 02:57:37;;;;;;;2.60;2.07;;;15.60;57.50;15.70;101803.00;;;;4947890;28;20181;-39
2021/12/21 03:00:05;;;;;;;2.07;1.83;;;15.50;57.50;15.80;101796.00;;;;4948852;28;20653;-39
2021/12/21 03:02:31;;;;;;;2.17;1.97;;;15.50;57.60;15.80;101801.00;;;;4947703;29;20177;-39
2021/12/21 03:04:57;;;;;;;2.10;1.90;;;15.50;57.90;15.80;101795.00;;;;4949460;28;20255;-39
2021/12/21 03:08:00;;;;;;;2.00;1.90;;;15.40;57.90;15.80;101802.00;;;;4948882;28;20174;-39
2021/12/21 03:10:23;;;;;;;2.00;1.90;;;15.40;57.90;15.80;101798.00;;;;4948681;28;20236;-39
2021/12/21 03:15:21;;;;;;;2.00;1.90;;;15.30;58.00;15.80;101803.00;;;;4948943;28;20193;-39
2021/12/21 03:17:48;;;;;;;2.23;2.07;;;15.30;58.10;15.80;101792.00;;;;4948464;28;20547;-39
2021/12/21 03:20:13;;;;;;;2.20;2.00;;;15.30;58.20;15.80;101789.00;;;;4948927;28;20189;-39
2021/12/21 03:22:39;;;;;;;2.50;1.80;;;15.30;58.20;15.70;101790.00;;;;4948427;28;20602;-39
2021/12/21 03:25:05;;;;;;;2.10;1.90;;;15.20;58.30;15.70;101787.00;;;;4948052;28;20787;-39
2021/12/21 03:27:31;;;;;;;2.10;1.90;;;15.20;58.40;15.70;101792.00;;;;4947949;28;20209;-39
2021/12/21 03:29:57;;;;;;;2.20;2.00;;;15.20;58.40;15.70;101783.00;;;;4948510;28;20172;-38
2021/12/21 03:32:22;;;;;;;1.90;1.80;;;15.10;58.40;15.70;101790.00;;;;4955452;28;20563;-38
2021/12/21 03:34:49;;;;;;;2.30;2.10;;;15.10;58.60;15.70;101785.00;;;;4967749;28;20275;-39
2021/12/21 03:37:15;;;;;;;2.00;1.90;;;15.00;58.50;15.70;101783.00;;;;4966794;28;20206;-40
2021/12/21 03:39:41;;;;;;;2.00;1.90;;;15.00;58.60;15.60;101785.00;;;;4967898;28;20175;-39
2021/12/21 03:42:08;;;;;;;2.20;2.00;;;14.90;58.60;15.60;101785.00;;;;4967585;28;20165;-39
2021/12/21 03:44:33;;;;;;;1.90;1.80;;;14.90;58.60;15.60;101781.00;;;;4966990;28;20204;-39
2021/12/21 03:46:59;;;;;;;2.37;2.00;;;14.90;58.70;15.60;101788.00;;;;4966961;28;20184;-39
2021/12/21 03:51:59;;;;;;;2.30;2.10;;;14.80;58.80;15.50;101772.00;;;;4967255;28;20173;-39
2021/12/21 03:54:24;;;;;;;1.93;1.80;;;14.80;58.80;15.50;101786.00;;;;4967059;28;20200;-39
2021/12/21 03:56:51;;;;;;;1.70;1.60;;;14.80;58.80;15.40;101787.00;;;;4966968;28;20181;-39
2021/12/21 03:59:17;;;;;;;2.20;2.00;;;14.70;58.70;15.40;101789.00;;;;4967208;28;20187;-39
2021/12/21 04:01:43;;;;;;;2.00;1.90;;;14.70;58.80;15.40;101784.00;;;;4967007;28;20185;-39
2021/12/21 04:04:09;;;;;;;1.97;1.87;;;14.60;58.80;15.30;101777.00;;;;4966858;28;20707;-39
2021/12/21 04:06:35;;;;;;;1.97;1.80;;;14.60;58.80;15.30;101779.00;;;;4966525;28;20173;-39
2021/12/21 04:09:05;;;;;;;3.07;2.00;;;14.60;58.90;15.30;101778.00;;;;4967063;28;20184;-39
2021/12/21 04:11:31;;;;;;;2.30;1.90;;;14.50;58.90;15.30;101782.00;;;;4966808;28;20173;-39
2021/12/21 04:13:57;;;;;;;2.67;1.90;;;14.50;59.00;15.20;101780.00;;;;4966824;28;20196;-39
2021/12/21 04:16:23;;;;;;;1.90;1.80;;;14.40;59.00;15.20;101776.00;;;;4967035;28;20246;-39
2021/12/21 04:18:49;;;;;;;2.10;2.00;;;14.40;59.00;15.20;101783.00;;;;4967474;28;20664;-39
2021/12/21 04:21:15;;;;;;;2.13;1.97;;;14.40;59.00;15.20;101776.00;;;;4967620;28;20544;-39
2021/12/21 04:23:41;;;;;;;1.90;1.80;;;14.30;59.00;15.10;101771.00;;;;4967757;28;20197;-39
2021/12/21 04:26:08;;;;;;;2.40;2.20;;;14.30;59.00;15.10;101763.00;;;;4966739;28;20230;-39
2021/12/21 04:28:34;;;;;;;2.03;1.93;;;14.30;59.00;15.10;101775.00;;;;4967536;28;20263;-39
2021/12/21 04:31:00;;;;;;;2.00;1.90;;;14.20;59.00;15.00;101779.00;;;;4967334;28;20169;-39
2021/12/21 04:33:25;;;;;;;2.20;2.00;;;14.20;59.10;15.00;101777.00;;;;4967697;28;20252;-39
2021/12/21 04:35:51;;;;;;;2.20;2.00;;;14.20;59.10;15.00;101772.00;;;;4966899;28;20201;-39
2021/12/21 04:38:21;;;;;;;2.00;1.90;;;14.10;59.10;14.90;101767.00;;;;4966822;28;20717;-39
2021/12/21 04:41:00;;;;;;;2.27;2.10;;;14.10;59.00;14.90;101763.00;;;;4967556;28;20161;-40
2021/12/21 04:43:26;;;;;;;1.90;1.80;;;14.00;59.10;14.90;101766.00;;;;4967059;28;20156;-40
2021/12/21 04:45:52;;;;;;;2.00;1.90;;;14.00;59.10;14.80;101762.00;;;;4967436;28;20207;-39
2021/12/21 04:48:17;;;;;;;2.20;2.00;;;14.00;59.10;14.80;101762.00;;;;4966779;28;20475;-39
2021/12/21 04:50:43;;;;;;;2.40;2.13;;;13.90;59.10;14.80;101764.00;;;;4967280;28;20185;-38
2021/12/21 04:53:09;;;;;;;2.20;2.00;;;13.90;59.20;14.80;101757.00;;;;4966951;28;20173;-39
2021/12/21 04:55:35;;;;;;;2.20;2.00;;;13.90;59.10;14.80;101755.00;;;;4966895;28;20200;-38
2021/12/21 04:58:01;;;;;;;2.30;2.10;;;13.90;59.20;14.70;101751.00;;;;4966956;28;20187;-38
2021/12/21 05:00:28;;;;;;;2.23;2.03;;;13.90;59.20;14.70;101753.00;;;;4967448;28;20223;-39
2021/12/21 05:02:54;;;;;;;2.30;2.10;;;13.80;59.20;14.70;101751.00;;;;4967260;28;20676;-39
2021/12/21 05:05:19;;;;;;;1.90;1.80;;;13.80;59.20;14.60;101769.00;;;;4967017;28;20209;-39
2021/12/21 05:07:51;;;;;;;2.30;2.10;;;13.70;59.10;14.60;101755.00;;;;4967204;28;20197;-39
2021/12/21 05:10:18;;;;;;;2.07;1.97;;;13.70;59.30;14.60;101759.00;;;;4967385;28;20169;-39
2021/12/21 05:12:44;;;;;;;2.20;2.00;;;13.70;59.20;14.50;101750.00;;;;4967337;28;20537;-39
2021/12/21 05:15:10;;;;;;;1.97;1.87;;;13.70;59.30;14.50;101756.00;;;;4966906;28;20211;-39
2021/12/21 05:17:35;;;;;;;2.00;1.90;;;13.70;59.30;14.50;101755.00;;;;4966508;28;20181;-39
2021/12/21 05:20:01;;;;;;;2.20;2.00;;;13.60;59.20;14.50;101753.00;;;;4966875;28;20200;-38
2021/12/21 05:22:27;;;;;;;2.00;1.90;;;13.60;59.20;14.40;101761.00;;;;4960755;28;20223;-38
2021/12/21 05:24:53;;;;;;;2.40;2.10;;;13.60;59.20;14.40;101762.00;;;;4969835;28;20521;-38
2021/12/21 05:27:19;;;;;;;2.00;1.90;;;13.50;59.80;14.40;101762.00;;;;4969862;28;20636;-40
2021/12/21 05:29:45;;;;;;;2.50;2.30;;;13.50;59.20;14.40;101764.00;;;;4970225;28;20189;-39
2021/12/21 05:32:11;;;;;;;2.30;2.10;;;13.50;59.20;14.30;101770.00;;;;4970173;28;20211;-39
2021/12/21 05:34:36;;;;;;;2.40;2.20;;;13.50;59.40;14.30;101770.00;;;;4966318;28;20243;-39
2021/12/21 05:37:06;;;;;;;2.43;2.03;;;13.50;59.20;14.30;101771.00;;;;4969791;28;20193;-40
2021/12/21 05:39:57;;;;;;;2.30;2.10;;;13.40;59.10;14.30;101767.00;;;;4973672;28;20185;-39
2021/12/21 05:42:22;;;;;;;3.20;2.10;;;13.40;59.10;14.30;101772.00;;;;4971409;28;20173;-38
2021/12/21 05:44:49;;;;;;;3.67;2.17;;;13.50;58.90;14.30;101762.00;;;;4971745;28;20267;-39
2021/12/21 05:47:15;;;;;;;2.73;2.10;;;13.70;58.70;14.40;101782.00;;;;4971649;28;20216;-38
2021/12/21 05:49:41;;;;;;;2.33;2.13;;;13.90;58.50;14.50;101770.00;;;;4972344;28;20180;-38
2021/12/21 05:52:07;;;;;;;2.90;2.20;;;14.20;58.30;14.60;101775.00;;;;4971862;28;20247;-38
2021/12/21 05:54:33;;;;;;;2.23;2.03;;;14.40;57.90;14.70;101768.00;;;;4971584;28;20200;-39
2021/12/21 05:56:59;;;;;;;2.47;2.27;;;14.70;57.40;14.90;101765.00;;;;4970528;28;20628;-39
2021/12/21 05:59:25;;;;;;;2.73;2.10;;;15.10;57.20;15.10;101764.00;;;;4972376;28;20173;-39
2021/12/21 06:01:50;;;;;;;2.67;2.27;;;15.30;56.70;15.20;101773.00;;;;4968811;28;20252;-39
2021/12/21 06:04:16;;;;;;;2.30;2.10;;;15.40;56.50;15.40;101771.00;;;;4952297;28;20210;-40
2021/12/21 06:06:42;;;;;;;2.30;2.10;;;15.50;56.40;15.50;101776.00;;;;4951958;28;20170;-40
2021/12/21 06:09:10;;;;;;;2.50;2.30;;;15.60;56.30;15.60;101778.00;;;;4952700;28;20535;-38
2021/12/21 06:11:41;;;;;;;2.47;2.27;;;15.60;56.30;15.60;101778.00;;;;4952667;28;20186;-39
2021/12/21 06:27:33;;;;;;;3.37;2.20;;;15.60;57.20;15.90;101778.00;;;;4952052;29;20189;-39
2021/12/21 06:29:59;;;;;;;3.40;2.40;;;15.80;57.50;15.90;101770.00;;;;4952205;28;20648;-39
2021/12/21 06:32:25;;;;;;;4.57;2.50;;;16.00;57.20;16.10;101775.00;;;;4951058;28;20186;-39
2021/12/21 06:34:50;;;;;;;3.73;2.77;;;16.20;56.90;16.20;101763.00;;;;4952499;29;20237;-39
2021/12/21 06:37:16;;;;;;;6.00;2.60;;;16.40;56.80;16.30;101762.00;;;;4951392;28;20273;-38
2021/12/21 06:39:42;;;;;;;7.40;2.70;;;16.40;56.90;16.30;101774.00;;;;4951900;29;20213;-38
2021/12/21 06:42:09;;;;;;;6.67;2.80;;;16.50;56.70;16.40;101771.00;;;;4952768;28;20213;-39
2021/12/21 06:44:37;;;;;;;5.47;2.83;;;16.60;56.70;16.50;101773.00;;;;4956478;29;20292;-39
2021/12/21 06:52:32;;;;;;;5.03;2.83;;;16.60;56.50;16.60;101768.00;;;;4951817;29;20161;-38
2021/12/21 06:55:00;;;;;;;3.77;2.80;;;16.60;56.60;16.70;101763.00;;;;4951755;28;20201;-39
2021/12/21 06:57:26;;;;;;;3.90;2.67;;;16.70;56.60;16.70;101768.00;;;;4951327;28;20217;-39
2021/12/21 06:59:52;;;;;;;4.20;2.30;;;16.70;56.50;16.70;101779.00;;;;4952635;28;20247;-40
2021/12/21 07:02:18;;;;;;;6.47;2.70;;;16.60;56.50;16.70;101775.00;;;;4951999;28;20258;-40
2021/12/21 07:04:44;;;;;;;3.50;2.60;;;16.60;56.50;16.70;101784.00;;;;4951936;28;20229;-39
2021/12/21 07:07:11;;;;;;;3.00;2.60;;;16.60;56.50;16.70;101783.00;;;;4951485;29;20225;-39
2021/12/21 07:09:42;;;;;;;4.73;2.80;;;16.50;56.60;16.70;101786.00;;;;4952145;28;20657;-39
2021/12/21 07:18:06;;;;;;;4.67;2.70;;;16.40;56.80;16.70;101796.00;;;;4951550;29;20181;-39
2021/12/21 07:20:32;;;;;;;3.83;2.60;;;16.40;56.90;16.70;101793.00;;;;4951673;28;20189;-39
2021/12/21 07:22:58;;;;;;;3.13;2.40;;;16.20;57.00;16.70;101790.00;;;;4951660;29;20256;-38
2021/12/21 07:25:27;;;;;;;3.63;2.80;;;16.20;57.20;16.70;101796.00;;;;4951475;28;20223;-40
2021/12/21 07:27:53;;;;;;;3.03;2.40;;;16.10;57.10;16.70;101788.00;;;;4951236;28;20173;-39
2021/12/21 07:30:19;;;;;;;2.60;2.40;;;16.10;57.20;16.70;101794.00;;;;4951589;28;20652;-39
2021/12/21 07:32:44;;;;;;;3.57;2.53;;;16.10;57.20;16.60;101799.00;;;;4951599;28;20208;-39
2021/12/21 07:35:10;;;;;;;2.87;2.60;;;16.10;57.30;16.70;101800.00;;;;4951831;28;20484;-39
2021/12/21 07:37:36;;;;;;;2.77;2.57;;;16.20;57.20;16.60;101796.00;;;;4951213;28;20569;-39
2021/12/21 07:40:07;;;;;;;3.00;2.60;;;16.20;57.00;16.70;101801.00;;;;4950199;29;20182;-39
2021/12/21 07:42:32;;;;;;;2.60;2.40;;;16.30;57.00;16.70;101802.00;;;;4951433;28;20196;-39
2021/12/21 07:44:58;;;;;;;4.10;2.63;;;16.40;56.90;16.70;101806.00;;;;4950486;28;20209;-39
2021/12/21 07:47:24;;;;;;;4.47;2.60;;;16.50;56.70;16.70;101805.00;;;;4950645;28;20478;-39
2021/12/21 07:49:50;;;;;;;3.03;2.70;;;16.50;56.60;16.80;101804.00;;;;4951566;28;20185;-39
2021/12/21 07:52:16;;;;;;;3.43;2.60;;;16.50;56.40;16.80;101799.00;;;;4952315;28;20177;-39
2021/12/21 07:54:42;;;;;;;3.70;2.47;;;16.60;56.30;16.80;101810.00;;;;4951278;28;20264;-39
2021/12/21 07:57:07;;;;;;;3.20;2.80;;;16.60;56.10;16.80;101724.00;;;;4950618;28;20644;-41
2021/12/21 07:59:34;;;;;;;3.07;2.77;;;16.70;56.10;16.90;101812.00;;;;4951214;29;20216;-39
2021/12/21 08:02:00;;;;;;;2.87;2.60;;;16.80;56.20;16.90;101799.00;;;;4950594;28;20173;-39
2021/12/21 08:04:28;;;;;;;2.73;2.53;;;16.80;56.10;16.90;101810.00;;;;4950991;28;20201;-40
2021/12/21 08:06:57;;;;;;;3.03;2.73;;;16.80;56.10;17.00;101808.00;;;;4948966;29;20590;-39
2021/12/21 08:09:26;;;;;;;2.80;2.60;;;16.80;56.10;17.00;101803.00;;;;4951294;28;20170;-39
2021/12/21 08:12:13;;;;;;;3.50;3.00;;;16.80;56.00;17.00;101801.00;;;;4951202;28;20178;-39
2021/12/21 08:14:39;;;;;;;3.53;3.23;;;16.80;56.10;16.70;101805.00;;;;4950678;29;20205;-39
2021/12/21 08:17:05;;;;;;;3.50;3.20;;;16.80;56.00;17.00;101811.00;;;;4950277;28;20180;-39
2021/12/21 08:19:30;;;;;;;3.67;3.07;;;16.80;56.00;17.00;101811.00;;;;4951067;28;20188;-39
2021/12/21 08:21:56;;;;;;;3.60;3.30;;;16.80;56.10;17.00;101806.00;;;;4950888;28;20181;-40
2021/12/21 08:24:22;;;;;;;3.60;3.30;;;16.80;56.10;17.00;101809.00;;;;4950788;28;20707;-40
2021/12/21 08:26:47;;;;;;;3.60;3.30;;;16.80;56.20;17.00;101810.00;;;;4949952;28;20177;-39
2021/12/21 08:29:13;;;;;;;3.70;3.40;;;16.80;56.20;17.00;101815.00;;;;4950254;28;20173;-39
2021/12/21 08:31:39;;;;;;;3.60;3.30;;;16.70;56.10;17.00;101808.00;;;;4950148;28;20174;-39
2021/12/21 08:34:04;;;;;;;4.03;3.73;;;16.70;56.10;17.00;101815.00;;;;4950548;28;20228;-40
2021/12/21 08:36:31;;;;;;;4.17;3.80;;;16.70;56.40;17.00;101820.00;;;;4949776;28;20378;-39
2021/12/21 08:38:57;;;;;;;3.73;3.43;;;16.60;56.30;17.00;101805.00;;;;4950417;28;20239;-40
2021/12/21 08:41:23;;;;;;;4.00;3.60;;;16.70;56.50;17.00;101807.00;;;;4956670;28;20275;-40
2021/12/21 08:43:50;;;;;;;4.33;3.97;;;16.60;56.50;17.00;101819.00;;;;4962453;28;20700;-39
2021/12/21 08:46:16;;;;;;;4.03;3.73;;;16.60;56.50;17.00;101809.00;;;;4955736;28;20188;-40
2021/12/21 08:48:41;;;;;;;4.20;3.90;;;16.60;56.40;17.00;101811.00;;;;4969594;28;20169;-40
2021/12/21 08:51:07;;;;;;;4.43;4.03;;;16.60;56.50;17.00;101814.00;;;;4969715;28;20284;-40
2021/12/21 08:53:33;;;;;;;4.63;4.00;;;16.60;56.40;17.00;101812.00;;;;4969320;28;20173;-40
2021/12/21 08:55:59;;;;;;;8.43;4.63;;;16.60;56.70;17.00;101813.00;;;;4969626;28;20181;-39
2021/12/21 08:58:25;;;;;;;11.20;4.20;;;16.60;56.90;17.00;101811.00;;;;4973182;28;20544;-45
2021/12/21 09:00:51;;;;;;;6.63;4.30;;;16.70;57.00;17.10;101816.00;;;;4973498;28;20525;-40
2021/12/21 09:03:17;;;;;;;9.57;4.50;;;16.80;57.10;17.10;101798.00;;;;4973157;28;20216;-39
2021/12/21 09:05:43;;;;;;;11.77;4.80;;;16.80;57.00;17.10;101798.00;;;;4971690;28;20655;-39
2021/12/21 09:08:12;;;;;;;11.40;4.30;;;16.80;57.50;17.10;101801.00;;;;4972978;28;20394;-39
2021/12/21 09:10:39;;;;;;;9.07;4.37;;;16.90;57.30;17.20;101806.00;;;;4973392;28;20703;-38
2021/12/21 09:13:06;;;;;;;11.37;4.50;;;16.90;57.10;17.20;101805.00;;;;4973308;28;20177;-39
2021/12/21 09:15:32;;;;;;;8.80;4.40;;;16.90;57.30;17.20;101806.00;;;;4972748;28;20200;-39
2021/12/21 09:17:58;;;;;;;9.17;4.67;;;17.00;57.20;17.30;101810.00;;;;4972803;28;20293;-39
2021/12/21 09:20:25;;;;;;;9.87;4.13;;;16.90;56.90;17.30;101806.00;;;;4972997;28;20655;-39
2021/12/21 09:22:52;;;;;;;10.10;4.53;;;17.00;56.80;17.30;101797.00;;;;4987611;28;20875;-39
2021/12/21 09:25:18;;;;;;;8.70;4.10;;;17.00;56.70;17.30;101803.00;;;;4972292;28;20209;-39
2021/12/21 09:27:44;;;;;;;8.43;4.20;;;17.00;56.60;17.30;101800.00;;;;4972306;28;20181;-38
2021/12/21 09:30:13;;;;;;;7.47;4.30;;;17.00;56.60;17.30;101806.00;;;;4972838;28;20251;-39
2021/12/21 09:32:39;;;;;;;7.63;4.20;;;17.00;56.40;17.30;101804.00;;;;4972449;28;20192;-39
2021/12/21 09:35:05;;;;;;;6.37;4.10;;;17.00;56.40;17.30;101812.00;;;;4972788;28;20196;-39
2021/12/21 09:37:32;;;;;;;7.53;4.37;;;17.00;56.70;17.30;101798.00;;;;4972724;28;20176;-40
2021/12/21 09:39:57;;;;;;;6.77;4.20;;;17.00;57.00;17.30;101814.00;;;;4972353;28;20168;-39
2021/12/21 09:42:32;;;;;;;6.83;4.10;;;17.00;57.30;17.30;101804.00;;;;4972350;28;20181;-40
2021/12/21 09:44:58;;;;;;;7.67;4.13;;;16.90;57.30;17.30;101807.00;;;;4972231;28;20227;-39
2021/12/21 09:47:26;;;;;;;14.07;4.70;;;17.00;57.50;17.30;101806.00;;;;4971850;28;20455;-39
2021/12/21 09:49:52;;;;;;;16.73;4.87;;;16.90;57.90;17.30;101807.00;;;;4972589;28;20172;-40
2021/12/21 09:52:21;;;;;;;17.07;4.67;;;16.90;58.10;17.30;101808.00;;;;4972111;28;20177;-39
2021/12/21 09:54:46;;;;;;;25.10;4.97;;;17.00;59.10;17.40;101809.00;;;;4972338;28;20212;-38
2021/12/21 09:57:16;;;;;;;27.53;5.53;;;17.00;58.50;17.40;101801.00;;;;4972081;28;20410;-38
2021/12/21 09:59:43;;;;;;;15.30;4.70;;;16.90;59.50;17.40;101810.00;;;;4972082;28;20173;-39
2021/12/21 10:02:09;;;;;;;19.13;4.57;;;17.00;59.60;17.40;101799.00;;;;4971981;28;20165;-39
2021/12/21 10:04:46;;;;;;;16.13;4.83;;;17.10;59.90;17.50;101798.00;;;;4971898;28;20746;-39
2021/12/21 10:07:14;;;;;;;14.13;4.30;;;17.20;59.50;17.50;101816.00;;;;4971647;28;20173;-39
2021/12/21 10:09:43;;;;;;;15.30;4.60;;;17.30;59.40;17.50;101810.00;;;;4972679;28;20161;-39
2021/12/21 10:12:13;;;;;;;15.83;4.60;;;17.40;59.50;17.60;101806.00;;;;4967460;28;20177;-39
2021/12/21 10:14:39;;;;;;;15.20;4.77;;;17.40;59.10;17.60;101816.00;;;;4956364;28;20208;-39
2021/12/21 10:17:09;;;;;;;12.70;4.40;;;17.40;59.10;17.70;101814.00;;;;4951874;29;20178;-39
2021/12/21 10:19:36;;;;;;;13.63;4.47;;;17.50;58.70;17.70;101809.00;;;;4952367;28;20604;-39
2021/12/21 10:22:17;;;;;;;7.93;3.87;;;17.50;58.50;17.80;101808.00;;;;4955177;28;20253;-39
2021/12/21 10:24:51;;;;;;;11.63;4.23;;;17.50;58.50;17.80;101805.00;;;;4953341;28;20198;-43
2021/12/21 10:27:18;;;;;;;12.23;4.00;;;17.50;58.20;17.80;101809.00;;;;4951824;29;20294;-39
2021/12/21 10:30:05;;;;;;;12.17;4.03;;;17.60;58.00;17.80;101804.00;;;;4952195;28;20166;-39
2021/12/21 10:32:32;;;;;;;6.63;3.70;;;17.60;58.00;17.80;101795.00;;;;4952386;28;20189;-40
2021/12/21 10:35:07;;;;;;;10.20;4.03;;;17.50;58.00;17.80;101803.00;;;;4952572;29;20542;-40
2021/12/21 10:37:38;;;;;;;8.57;3.90;;;17.60;58.00;17.90;101796.00;;;;4951287;28;20224;-39
2021/12/21 10:40:17;;;;;;;7.50;3.90;;;17.50;57.90;17.90;101791.00;;;;4952145;28;20188;-40
2021/12/21 10:43:00;;;;;;;10.57;3.90;;;17.60;58.00;17.90;101786.00;;;;4952375;28;20174;-40
2021/12/21 10:45:29;;;;;;;5.17;3.60;;;17.60;57.90;17.90;101778.00;;;;4951622;29;20220;-40
2021/12/21 10:47:55;;;;;;;8.93;3.67;;;17.60;58.00;17.90;101777.00;;;;4951059;28;20260;-39
2021/12/21 10:50:21;;;;;;;7.73;3.90;;;17.60;57.90;17.90;101777.00;;;;4951588;29;20184;-40
2021/12/21 10:52:52;;;;;;;8.60;3.77;;;17.50;57.90;17.90;101777.00;;;;4951809;28;20294;-40
2021/12/21 10:55:32;;;;;;;8.47;4.00;;;17.50;58.00;17.90;101770.00;;;;4966447;28;20220;-39
2021/12/21 10:58:08;;;;;;;7.13;3.83;;;17.50;58.10;17.90;101779.00;;;;4951500;29;20180;-39
2021/12/21 11:00:36;;;;;;;6.83;3.40;;;17.50;58.00;17.90;101777.00;;;;4951917;28;20157;-41
2021/12/21 11:03:02;;;;;;;7.47;3.47;;;17.50;58.00;17.90;101766.00;;;;4967832;28;20211;-39
2021/12/21 11:05:28;;;;;;;6.33;3.50;;;17.60;58.10;17.90;101767.00;;;;4970598;28;20702;-39
2021/12/21 11:08:04;;;;;;;15.07;3.70;;;17.50;58.50;18.00;101762.00;;;;4970659;28;20546;-39
2021/12/21 11:10:34;;;;;;;11.30;3.90;;;17.50;58.80;18.00;101753.00;;;;4971011;28;20236;-39
2021/12/21 11:13:11;;;;;;;9.30;3.70;;;17.60;59.00;18.00;101749.00;;;;4970949;28;20185;-38
2021/12/21 11:15:42;;;;;;;6.43;3.67;;;17.70;59.00;18.00;101754.00;;;;4970419;28;20239;-38
2021/12/21 11:18:16;;;;;;;6.70;3.87;;;17.60;58.70;18.10;101746.00;;;;4968978;28;20184;-39
2021/12/21 11:20:44;;;;;;;9.23;3.40;;;17.70;58.60;18.10;101751.00;;;;4970416;28;20164;-39
2021/12/21 11:23:11;;;;;;;5.50;3.57;;;17.70;58.60;18.10;101746.00;;;;4970805;28;20173;-39
2021/12/21 11:25:37;;;;;;;4.70;3.33;;;17.70;58.60;18.20;101732.00;;;;4965661;28;20216;-39
2021/12/21 11:28:04;;;;;;;8.80;3.50;;;17.70;58.50;18.20;101735.00;;;;4933712;29;20277;-39
2021/12/21 11:30:29;;;;;;;6.23;3.53;;;17.80;58.70;18.20;101742.00;;;;4950916;28;20240;-39
2021/12/21 11:32:57;;;;;;;6.63;3.60;;;17.80;58.50;18.30;101735.00;;;;4966677;28;20264;-39
2021/12/21 11:37:54;;;;;;;5.10;3.13;;;17.90;58.50;18.30;101726.00;;;;4970674;28;20636;-39
2021/12/21 11:40:27;;;;;;;4.43;3.27;;;17.90;58.50;18.30;101724.00;;;;4963526;28;20182;-38
2021/12/21 11:43:12;;;;;;;3.80;3.40;;;17.90;58.40;18.40;101718.00;;;;4951229;28;20253;-39
2021/12/21 11:45:53;;;;;;;5.03;3.10;;;18.00;58.40;18.40;101713.00;;;;4950447;29;20711;-40
2021/12/21 11:49:10;;;;;;;4.60;2.97;;;18.00;58.40;18.40;101700.00;;;;4950598;29;20696;-40
2021/12/21 11:51:35;;;;;;;4.13;3.13;;;18.00;58.30;18.50;101706.00;;;;4887671;29;20187;-38